Creek Data

    Home     View Charts     View Raw Data     Messages

ID Distance Battery Voltage Battery Current Internal Temp Internal Humidity External Temp Solar Input rssi snr Time Stamp Record
35252 15.2 4.05 0 68 42 61 5.1 -79 8 03/17/2025 04:30 PM 17015
35251 15.0 4.05 0 65 44 63 5.1 -77 7 03/17/2025 04:15 PM 17014
35250 15.2 4.04 0 67 44 58 5.1 -78 8 03/17/2025 04:00 PM 17013
35249 15.3 4.05 0 71 40 63 5.1 -76 8 03/17/2025 03:45 PM 17012
35248 15.2 4.15 0 70 40 62 5.1 -75 8 03/17/2025 03:30 PM 17011
35247 15.1 4.04 0 66 42 62 5.1 -79 8 03/17/2025 03:15 PM 17010
35246 15.2 4.09 0 69 39 63 5.1 -77 7 03/17/2025 02:46 PM 17008
35245 15.2 4.04 0 68 39 62 5.1 -78 7 03/17/2025 02:30 PM 17007
35244 15.2 4.04 0 67 39 62 5.1 -75 8 03/17/2025 02:15 PM 17006
35243 15.2 4.04 0 64 40 60 5.1 -79 7 03/17/2025 02:00 PM 17005
35242 0.0 4.06 0 65 39 62 5.1 -76 9 03/17/2025 01:45 PM 17004
35241 15.2 4.04 0 62 40 59 5.1 -78 8 03/17/2025 01:30 PM 17003
35240 15.2 4.04 0 62 39 59 5.1 -77 7 03/17/2025 01:15 PM 17002
35239 15.1 4.04 0 59 40 57 5.1 -77 8 03/17/2025 01:00 PM 17001
35238 15.2 4.04 0 60 39 56 5.1 -80 7 03/17/2025 12:45 PM 17000
35237 0.0 4.04 0 59 39 59 5.1 -82 8 03/17/2025 12:30 PM 16999
35236 15.1 4.04 0 54 41 53 5.1 -80 7 03/17/2025 12:15 PM 16998
35235 15.1 4.04 0 55 42 55 5.1 -80 8 03/17/2025 12:00 PM 16997
35234 15.1 4.10 35 52 44 48 4.5 -82 7 03/17/2025 11:45 AM 16996
35233 0.0 4.04 0 61 39 57 5.1 -75 8 03/17/2025 11:30 AM 16995
35232 0.0 4.04 0 61 37 58 5.1 -76 8 03/17/2025 11:00 AM 16993
35231 0.0 4.04 0 60 37 62 5.1 -75 9 03/17/2025 10:45 AM 16992
35230 15.2 4.04 0 58 37 59 5.1 -81 8 03/17/2025 10:30 AM 16991
35229 15.2 4.04 0 58 37 60 5.1 -79 6 03/17/2025 10:15 AM 16990
35228 15.2 4.04 0 56 37 58 5.1 -79 7 03/17/2025 10:00 AM 16989